sensor_id;sensor_type;location;lat;lon;timestamp;P1;durP1;ratioP1;P2;durP2;ratioP2
69744;SDS011;57015;50.120;-5.168;2022-11-15T00:01:06;7.68;;;0.65;;
69744;SDS011;57015;50.120;-5.168;2022-11-15T00:03:32;9.80;;;1.10;;
69744;SDS011;57015;50.120;-5.168;2022-11-15T00:06:02;9.23;;;0.80;;
69744;SDS011;57015;50.120;-5.168;2022-11-15T00:08:29;9.77;;;0.60;;
69744;SDS011;57015;50.120;-5.168;2022-11-15T00:10:59;7.03;;;0.65;;
69744;SDS011;57015;50.120;-5.168;2022-11-15T00:13:25;10.43;;;0.93;;
69744;SDS011;57015;50.120;-5.168;2022-11-15T00:15:50;9.10;;;0.97;;
69744;SDS011;57015;50.120;-5.168;2022-11-15T00:18:16;9.93;;;1.43;;
69744;SDS011;57015;50.120;-5.168;2022-11-15T00:20:42;6.85;;;0.73;;
69744;SDS011;57015;50.120;-5.168;2022-11-15T00:23:08;9.23;;;0.80;;
69744;SDS011;57015;50.120;-5.168;2022-11-15T00:25:33;6.57;;;0.57;;
69744;SDS011;57015;50.120;-5.168;2022-11-15T00:27:59;10.93;;;0.80;;
69744;SDS011;57015;50.120;-5.168;2022-11-15T00:30:25;6.28;;;0.70;;
69744;SDS011;57015;50.120;-5.168;2022-11-15T00:32:50;10.85;;;0.70;;
69744;SDS011;57015;50.120;-5.168;2022-11-15T00:35:16;11.90;;;1.00;;
69744;SDS011;57015;50.120;-5.168;2022-11-15T00:37:42;6.33;;;0.50;;
69744;SDS011;57015;50.120;-5.168;2022-11-15T00:40:07;7.45;;;0.40;;
69744;SDS011;57015;50.120;-5.168;2022-11-15T00:42:33;5.80;;;0.50;;
69744;SDS011;57015;50.120;-5.168;2022-11-15T00:44:59;5.93;;;0.60;;
69744;SDS011;57015;50.120;-5.168;2022-11-15T00:47:24;4.57;;;0.50;;
69744;SDS011;57015;50.120;-5.168;2022-11-15T00:49:49;6.73;;;1.50;;
69744;SDS011;57015;50.120;-5.168;2022-11-15T00:52:15;5.37;;;0.30;;
69744;SDS011;57015;50.120;-5.168;2022-11-15T00:54:40;6.07;;;0.57;;
69744;SDS011;57015;50.120;-5.168;2022-11-15T00:57:06;5.80;;;0.40;;
69744;SDS011;57015;50.120;-5.168;2022-11-15T00:59:31;4.40;;;0.40;;
69744;SDS011;57015;50.120;-5.168;2022-11-15T01:01:56;3.30;;;0.30;;
69744;SDS011;57015;50.120;-5.168;2022-11-15T01:04:22;3.70;;;0.25;;
69744;SDS011;57015;50.120;-5.168;2022-11-15T01:06:47;4.13;;;0.20;;
69744;SDS011;57015;50.120;-5.168;2022-11-15T01:09:13;4.20;;;0.20;;
69744;SDS011;57015;50.120;-5.168;2022-11-15T01:11:38;5.35;;;0.30;;
69744;SDS011;57015;50.120;-5.168;2022-11-15T01:14:04;5.57;;;0.68;;
69744;SDS011;57015;50.120;-5.168;2022-11-15T01:16:29;7.33;;;0.43;;
69744;SDS011;57015;50.120;-5.168;2022-11-15T01:18:55;9.77;;;0.60;;
69744;SDS011;57015;50.120;-5.168;2022-11-15T01:21:20;9.33;;;0.70;;
69744;SDS011;57015;50.120;-5.168;2022-11-15T01:23:46;12.75;;;0.77;;
69744;SDS011;57015;50.120;-5.168;2022-11-15T01:26:12;9.43;;;0.83;;
69744;SDS011;57015;50.120;-5.168;2022-11-15T01:28:39;12.88;;;2.20;;
69744;SDS011;57015;50.120;-5.168;2022-11-15T01:31:08;13.27;;;0.80;;
69744;SDS011;57015;50.120;-5.168;2022-11-15T01:33:36;16.25;;;1.10;;
69744;SDS011;57015;50.120;-5.168;2022-11-15T01:36:06;14.70;;;1.47;;
69744;SDS011;57015;50.120;-5.168;2022-11-15T01:38:32;15.20;;;1.10;;
69744;SDS011;57015;50.120;-5.168;2022-11-15T01:40:58;14.45;;;1.52;;
69744;SDS011;57015;50.120;-5.168;2022-11-15T01:43:25;13.73;;;1.27;;
69744;SDS011;57015;50.120;-5.168;2022-11-15T01:48:53;23.40;;;1.83;;
69744;SDS011;57015;50.120;-5.168;2022-11-15T01:51:20;19.03;;;1.63;;
69744;SDS011;57015;50.120;-5.168;2022-11-15T01:53:49;22.70;;;2.20;;
69744;SDS011;57015;50.120;-5.168;2022-11-15T01:56:18;12.20;;;2.45;;
69744;SDS011;57015;50.120;-5.168;2022-11-15T01:58:48;13.00;;;1.15;;
69744;SDS011;57015;50.120;-5.168;2022-11-15T02:01:13;18.50;;;2.13;;
69744;SDS011;57015;50.120;-5.168;2022-11-15T02:03:44;14.82;;;1.80;;
69744;SDS011;57015;50.120;-5.168;2022-11-15T02:06:14;11.97;;;1.97;;
69744;SDS011;57015;50.120;-5.168;2022-11-15T02:08:39;11.60;;;0.93;;
69744;SDS011;57015;50.120;-5.168;2022-11-15T02:11:08;6.83;;;0.60;;
69744;SDS011;57015;50.120;-5.168;2022-11-15T02:13:33;8.45;;;0.50;;
69744;SDS011;57015;50.120;-5.168;2022-11-15T02:18:58;10.97;;;0.73;;
69744;SDS011;57015;50.120;-5.168;2022-11-15T02:21:29;4.85;;;0.40;;
69744;SDS011;57015;50.120;-5.168;2022-11-15T02:35:29;7.00;;;0.70;;
69744;SDS011;57015;50.120;-5.168;2022-11-15T02:38:04;6.15;;;1.00;;
69744;SDS011;57015;50.120;-5.168;2022-11-15T02:40:48;6.10;;;0.80;;
69744;SDS011;57015;50.120;-5.168;2022-11-15T02:43:21;6.65;;;0.85;;
69744;SDS011;57015;50.120;-5.168;2022-11-15T02:46:14;4.90;;;0.60;;
69744;SDS011;57015;50.120;-5.168;2022-11-15T02:48:41;7.28;;;1.33;;
69744;SDS011;57015;50.120;-5.168;2022-11-15T02:51:08;5.72;;;0.60;;
69744;SDS011;57015;50.120;-5.168;2022-11-15T02:53:34;8.95;;;0.80;;
69744;SDS011;57015;50.120;-5.168;2022-11-15T02:55:59;7.60;;;0.63;;
69744;SDS011;57015;50.120;-5.168;2022-11-15T03:06:53;5.43;;;0.60;;
69744;SDS011;57015;50.120;-5.168;2022-11-15T03:09:34;5.70;;;0.50;;
69744;SDS011;57015;50.120;-5.168;2022-11-15T03:12:48;2.75;;;0.40;;
69744;SDS011;57015;50.120;-5.168;2022-11-15T03:15:24;4.72;;;0.70;;
69744;SDS011;57015;50.120;-5.168;2022-11-15T03:20:19;5.27;;;0.50;;
69744;SDS011;57015;50.120;-5.168;2022-11-15T03:22:44;4.17;;;1.00;;
69744;SDS011;57015;50.120;-5.168;2022-11-15T03:25:13;5.82;;;0.40;;
69744;SDS011;57015;50.120;-5.168;2022-11-15T03:27:43;4.18;;;0.40;;
69744;SDS011;57015;50.120;-5.168;2022-11-15T03:30:11;3.80;;;0.30;;
69744;SDS011;57015;50.120;-5.168;2022-11-15T03:32:38;6.45;;;0.63;;
69744;SDS011;57015;50.120;-5.168;2022-11-15T03:35:11;2.65;;;0.40;;
69744;SDS011;57015;50.120;-5.168;2022-11-15T03:37:41;8.88;;;0.30;;
69744;SDS011;57015;50.120;-5.168;2022-11-15T03:40:07;4.50;;;0.35;;
69744;SDS011;57015;50.120;-5.168;2022-11-15T03:42:42;6.57;;;0.50;;
69744;SDS011;57015;50.120;-5.168;2022-11-15T03:47:53;4.43;;;0.77;;
69744;SDS011;57015;50.120;-5.168;2022-11-15T03:50:24;4.57;;;0.65;;
69744;SDS011;57015;50.120;-5.168;2022-11-15T03:52:50;4.88;;;0.32;;
69744;SDS011;57015;50.120;-5.168;2022-11-15T03:55:19;7.03;;;0.67;;
69744;SDS011;57015;50.120;-5.168;2022-11-15T03:57:46;6.80;;;0.30;;
69744;SDS011;57015;50.120;-5.168;2022-11-15T04:00:15;4.68;;;0.40;;
69744;SDS011;57015;50.120;-5.168;2022-11-15T04:02:41;3.47;;;0.40;;
69744;SDS011;57015;50.120;-5.168;2022-11-15T04:05:06;1.67;;;0.25;;
69744;SDS011;57015;50.120;-5.168;2022-11-15T04:07:32;4.87;;;0.30;;
69744;SDS011;57015;50.120;-5.168;2022-11-15T04:09:57;3.72;;;0.20;;
69744;SDS011;57015;50.120;-5.168;2022-11-15T04:12:33;2.93;;;0.20;;
69744;SDS011;57015;50.120;-5.168;2022-11-15T04:17:32;3.10;;;0.20;;
69744;SDS011;57015;50.120;-5.168;2022-11-15T04:20:05;5.43;;;0.30;;
69744;SDS011;57015;50.120;-5.168;2022-11-15T04:22:55;4.53;;;0.73;;
69744;SDS011;57015;50.120;-5.168;2022-11-15T04:25:39;5.30;;;0.40;;
69744;SDS011;57015;50.120;-5.168;2022-11-15T04:28:05;8.07;;;0.40;;
69744;SDS011;57015;50.120;-5.168;2022-11-15T04:30:31;3.80;;;0.40;;
69744;SDS011;57015;50.120;-5.168;2022-11-15T04:32:56;8.90;;;0.45;;
69744;SDS011;57015;50.120;-5.168;2022-11-15T04:35:22;19.90;;;0.87;;
69744;SDS011;57015;50.120;-5.168;2022-11-15T04:37:47;9.73;;;0.80;;
69744;SDS011;57015;50.120;-5.168;2022-11-15T04:40:12;6.53;;;0.57;;
69744;SDS011;57015;50.120;-5.168;2022-11-15T04:42:40;11.60;;;0.60;;
69744;SDS011;57015;50.120;-5.168;2022-11-15T04:45:07;7.32;;;0.65;;
69744;SDS011;57015;50.120;-5.168;2022-11-15T04:47:33;11.53;;;1.10;;
69744;SDS011;57015;50.120;-5.168;2022-11-15T04:49:58;6.78;;;0.57;;
69744;SDS011;57015;50.120;-5.168;2022-11-15T04:52:24;7.65;;;0.68;;
69744;SDS011;57015;50.120;-5.168;2022-11-15T04:54:49;8.63;;;0.50;;
69744;SDS011;57015;50.120;-5.168;2022-11-15T04:57:14;7.90;;;0.67;;
69744;SDS011;57015;50.120;-5.168;2022-11-15T04:59:40;7.47;;;0.77;;
69744;SDS011;57015;50.120;-5.168;2022-11-15T05:02:05;9.50;;;0.60;;
69744;SDS011;57015;50.120;-5.168;2022-11-15T05:04:31;10.33;;;0.90;;
69744;SDS011;57015;50.120;-5.168;2022-11-15T05:06:56;7.43;;;0.60;;
69744;SDS011;57015;50.120;-5.168;2022-11-15T05:09:21;9.57;;;0.57;;
69744;SDS011;57015;50.120;-5.168;2022-11-15T05:11:47;8.27;;;0.53;;
69744;SDS011;57015;50.120;-5.168;2022-11-15T05:14:12;9.23;;;0.90;;
69744;SDS011;57015;50.120;-5.168;2022-11-15T05:16:38;8.13;;;0.70;;
69744;SDS011;57015;50.120;-5.168;2022-11-15T05:19:04;6.93;;;0.77;;
69744;SDS011;57015;50.120;-5.168;2022-11-15T05:21:30;9.02;;;0.77;;
69744;SDS011;57015;50.120;-5.168;2022-11-15T05:23:55;6.65;;;0.60;;
69744;SDS011;57015;50.120;-5.168;2022-11-15T05:26:20;6.80;;;0.83;;
69744;SDS011;57015;50.120;-5.168;2022-11-15T05:28:46;6.10;;;0.87;;
69744;SDS011;57015;50.120;-5.168;2022-11-15T05:31:12;8.23;;;0.70;;
69744;SDS011;57015;50.120;-5.168;2022-11-15T05:33:39;7.65;;;0.40;;
69744;SDS011;57015;50.120;-5.168;2022-11-15T05:36:13;7.85;;;1.27;;
69744;SDS011;57015;50.120;-5.168;2022-11-15T05:38:43;10.00;;;0.70;;
69744;SDS011;57015;50.120;-5.168;2022-11-15T05:41:09;8.07;;;0.63;;
69744;SDS011;57015;50.120;-5.168;2022-11-15T05:43:35;11.30;;;1.00;;
69744;SDS011;57015;50.120;-5.168;2022-11-15T05:46:01;5.13;;;0.50;;
69744;SDS011;57015;50.120;-5.168;2022-11-15T05:48:28;7.43;;;2.42;;
69744;SDS011;57015;50.120;-5.168;2022-11-15T05:50:53;8.50;;;0.50;;
69744;SDS011;57015;50.120;-5.168;2022-11-15T05:53:19;5.13;;;0.50;;
69744;SDS011;57015;50.120;-5.168;2022-11-15T05:55:46;17.05;;;1.10;;
69744;SDS011;57015;50.120;-5.168;2022-11-15T05:58:12;6.47;;;0.60;;
69744;SDS011;57015;50.120;-5.168;2022-11-15T06:00:37;6.20;;;0.87;;
69744;SDS011;57015;50.120;-5.168;2022-11-15T06:03:02;10.63;;;0.47;;
69744;SDS011;57015;50.120;-5.168;2022-11-15T06:05:28;4.27;;;0.30;;
69744;SDS011;57015;50.120;-5.168;2022-11-15T06:07:57;5.60;;;0.50;;
69744;SDS011;57015;50.120;-5.168;2022-11-15T06:10:23;7.90;;;0.75;;
69744;SDS011;57015;50.120;-5.168;2022-11-15T06:12:55;7.27;;;0.80;;
69744;SDS011;57015;50.120;-5.168;2022-11-15T06:15:22;6.30;;;0.60;;
69744;SDS011;57015;50.120;-5.168;2022-11-15T06:17:47;7.17;;;0.60;;
69744;SDS011;57015;50.120;-5.168;2022-11-15T06:20:13;6.57;;;0.60;;
69744;SDS011;57015;50.120;-5.168;2022-11-15T06:22:38;8.57;;;0.70;;
69744;SDS011;57015;50.120;-5.168;2022-11-15T06:25:03;6.22;;;0.40;;
69744;SDS011;57015;50.120;-5.168;2022-11-15T06:27:29;8.93;;;1.43;;
69744;SDS011;57015;50.120;-5.168;2022-11-15T06:29:54;7.27;;;0.47;;
69744;SDS011;57015;50.120;-5.168;2022-11-15T06:32:20;8.70;;;0.53;;
69744;SDS011;57015;50.120;-5.168;2022-11-15T06:34:45;5.47;;;0.40;;
69744;SDS011;57015;50.120;-5.168;2022-11-15T06:37:10;7.33;;;0.60;;
69744;SDS011;57015;50.120;-5.168;2022-11-15T06:39:36;3.97;;;0.40;;
69744;SDS011;57015;50.120;-5.168;2022-11-15T06:42:01;8.13;;;0.57;;
69744;SDS011;57015;50.120;-5.168;2022-11-15T06:44:26;4.70;;;0.70;;
69744;SDS011;57015;50.120;-5.168;2022-11-15T06:46:52;6.63;;;0.40;;
69744;SDS011;57015;50.120;-5.168;2022-11-15T06:49:17;4.53;;;0.70;;
69744;SDS011;57015;50.120;-5.168;2022-11-15T06:51:43;6.40;;;0.43;;
69744;SDS011;57015;50.120;-5.168;2022-11-15T06:54:08;8.40;;;0.60;;
69744;SDS011;57015;50.120;-5.168;2022-11-15T06:56:33;3.50;;;0.30;;
69744;SDS011;57015;50.120;-5.168;2022-11-15T06:58:59;7.07;;;0.47;;
69744;SDS011;57015;50.120;-5.168;2022-11-15T07:01:24;7.27;;;0.63;;
69744;SDS011;57015;50.120;-5.168;2022-11-15T07:03:49;8.80;;;0.63;;
69744;SDS011;57015;50.120;-5.168;2022-11-15T07:06:15;5.73;;;0.60;;
69744;SDS011;57015;50.120;-5.168;2022-11-15T07:08:40;7.23;;;0.33;;
69744;SDS011;57015;50.120;-5.168;2022-11-15T07:11:07;7.75;;;0.55;;
69744;SDS011;57015;50.120;-5.168;2022-11-15T07:13:33;4.70;;;0.52;;
69744;SDS011;57015;50.120;-5.168;2022-11-15T07:16:03;7.28;;;0.55;;
69744;SDS011;57015;50.120;-5.168;2022-11-15T07:18:36;5.73;;;0.43;;
69744;SDS011;57015;50.120;-5.168;2022-11-15T07:21:03;5.53;;;0.40;;
69744;SDS011;57015;50.120;-5.168;2022-11-15T07:23:29;2.90;;;0.45;;
69744;SDS011;57015;50.120;-5.168;2022-11-15T07:25:56;6.93;;;0.40;;
69744;SDS011;57015;50.120;-5.168;2022-11-15T07:28:23;5.93;;;0.50;;
69744;SDS011;57015;50.120;-5.168;2022-11-15T07:30:48;3.70;;;1.10;;
69744;SDS011;57015;50.120;-5.168;2022-11-15T07:33:14;5.60;;;0.60;;
69744;SDS011;57015;50.120;-5.168;2022-11-15T07:35:39;5.57;;;0.80;;
69744;SDS011;57015;50.120;-5.168;2022-11-15T07:38:04;3.87;;;0.43;;
69744;SDS011;57015;50.120;-5.168;2022-11-15T07:40:30;12.43;;;0.57;;
69744;SDS011;57015;50.120;-5.168;2022-11-15T07:43:03;4.57;;;0.57;;
69744;SDS011;57015;50.120;-5.168;2022-11-15T07:45:30;8.98;;;0.70;;
69744;SDS011;57015;50.120;-5.168;2022-11-15T07:47:56;8.23;;;0.80;;
69744;SDS011;57015;50.120;-5.168;2022-11-15T07:50:22;5.72;;;0.45;;
69744;SDS011;57015;50.120;-5.168;2022-11-15T07:52:52;9.47;;;1.43;;
69744;SDS011;57015;50.120;-5.168;2022-11-15T07:55:22;8.70;;;1.17;;
69744;SDS011;57015;50.120;-5.168;2022-11-15T07:57:48;7.50;;;1.60;;
69744;SDS011;57015;50.120;-5.168;2022-11-15T08:00:13;11.57;;;1.57;;
69744;SDS011;57015;50.120;-5.168;2022-11-15T08:02:39;10.95;;;1.60;;
69744;SDS011;57015;50.120;-5.168;2022-11-15T08:05:05;14.53;;;3.80;;
69744;SDS011;57015;50.120;-5.168;2022-11-15T08:07:30;14.48;;;4.07;;
69744;SDS011;57015;50.120;-5.168;2022-11-15T08:09:56;12.10;;;2.60;;
69744;SDS011;57015;50.120;-5.168;2022-11-15T08:12:22;8.02;;;1.88;;
69744;SDS011;57015;50.120;-5.168;2022-11-15T08:14:47;13.23;;;2.13;;
69744;SDS011;57015;50.120;-5.168;2022-11-15T08:17:13;14.60;;;3.07;;
69744;SDS011;57015;50.120;-5.168;2022-11-15T08:19:38;11.45;;;2.80;;
69744;SDS011;57015;50.120;-5.168;2022-11-15T08:22:04;10.03;;;2.80;;
69744;SDS011;57015;50.120;-5.168;2022-11-15T08:24:29;6.93;;;1.20;;
69744;SDS011;57015;50.120;-5.168;2022-11-15T08:26:55;7.17;;;1.87;;
69744;SDS011;57015;50.120;-5.168;2022-11-15T08:29:23;7.00;;;1.30;;
69744;SDS011;57015;50.120;-5.168;2022-11-15T08:31:48;10.57;;;1.42;;
69744;SDS011;57015;50.120;-5.168;2022-11-15T08:34:14;8.33;;;1.37;;
69744;SDS011;57015;50.120;-5.168;2022-11-15T08:36:39;6.33;;;1.00;;
69744;SDS011;57015;50.120;-5.168;2022-11-15T08:39:04;8.63;;;2.47;;
69744;SDS011;57015;50.120;-5.168;2022-11-15T08:41:34;7.17;;;1.47;;
69744;SDS011;57015;50.120;-5.168;2022-11-15T08:44:00;6.15;;;1.20;;
69744;SDS011;57015;50.120;-5.168;2022-11-15T08:46:26;4.80;;;1.03;;
69744;SDS011;57015;50.120;-5.168;2022-11-15T08:48:51;11.98;;;1.35;;
69744;SDS011;57015;50.120;-5.168;2022-11-15T08:51:17;5.60;;;1.10;;
69744;SDS011;57015;50.120;-5.168;2022-11-15T08:53:42;6.43;;;0.93;;
69744;SDS011;57015;50.120;-5.168;2022-11-15T08:56:08;4.27;;;0.80;;
69744;SDS011;57015;50.120;-5.168;2022-11-15T08:58:35;6.25;;;0.95;;
69744;SDS011;57015;50.120;-5.168;2022-11-15T09:01:01;9.18;;;1.23;;
69744;SDS011;57015;50.120;-5.168;2022-11-15T09:03:26;5.63;;;1.03;;
69744;SDS011;57015;50.120;-5.168;2022-11-15T09:05:55;10.37;;;1.53;;
69744;SDS011;57015;50.120;-5.168;2022-11-15T09:08:22;8.98;;;1.00;;
69744;SDS011;57015;50.120;-5.168;2022-11-15T09:10:47;5.45;;;1.00;;
69744;SDS011;57015;50.120;-5.168;2022-11-15T09:13:13;4.83;;;0.50;;
69744;SDS011;57015;50.120;-5.168;2022-11-15T09:15:38;5.43;;;0.77;;
69744;SDS011;57015;50.120;-5.168;2022-11-15T09:18:04;6.50;;;0.80;;
69744;SDS011;57015;50.120;-5.168;2022-11-15T09:20:29;5.60;;;0.73;;
69744;SDS011;57015;50.120;-5.168;2022-11-15T09:22:58;8.13;;;1.17;;
69744;SDS011;57015;50.120;-5.168;2022-11-15T09:25:24;7.15;;;0.70;;
69744;SDS011;57015;50.120;-5.168;2022-11-15T09:27:50;6.37;;;0.93;;
69744;SDS011;57015;50.120;-5.168;2022-11-15T09:30:15;7.37;;;1.00;;
69744;SDS011;57015;50.120;-5.168;2022-11-15T09:32:41;5.13;;;1.00;;
69744;SDS011;57015;50.120;-5.168;2022-11-15T09:35:06;6.43;;;0.75;;
69744;SDS011;57015;50.120;-5.168;2022-11-15T09:37:32;7.90;;;1.13;;
69744;SDS011;57015;50.120;-5.168;2022-11-15T09:39:57;6.93;;;0.85;;
69744;SDS011;57015;50.120;-5.168;2022-11-15T09:45:50;12.70;;;2.00;;
69744;SDS011;57015;50.120;-5.168;2022-11-15T09:51:34;20.73;;;2.75;;
69744;SDS011;57015;50.120;-5.168;2022-11-15T09:56:45;14.82;;;1.95;;
69744;SDS011;57015;50.120;-5.168;2022-11-15T10:04:26;13.23;;;2.83;;
69744;SDS011;57015;50.120;-5.168;2022-11-15T10:06:58;12.57;;;1.65;;
69744;SDS011;57015;50.120;-5.168;2022-11-15T10:12:32;21.02;;;2.63;;
69744;SDS011;57015;50.120;-5.168;2022-11-15T10:15:02;14.10;;;2.30;;
69744;SDS011;57015;50.120;-5.168;2022-11-15T10:22:53;17.50;;;2.27;;
69744;SDS011;57015;50.120;-5.168;2022-11-15T10:25:30;19.85;;;1.98;;
69744;SDS011;57015;50.120;-5.168;2022-11-15T10:30:50;22.50;;;1.98;;
69744;SDS011;57015;50.120;-5.168;2022-11-15T10:38:49;21.05;;;2.60;;
69744;SDS011;57015;50.120;-5.168;2022-11-15T10:46:32;17.73;;;2.53;;
69744;SDS011;57015;50.120;-5.168;2022-11-15T10:49:15;12.10;;;1.80;;
69744;SDS011;57015;50.120;-5.168;2022-11-15T10:54:24;17.98;;;2.60;;
69744;SDS011;57015;50.120;-5.168;2022-11-15T10:56:53;17.60;;;1.98;;
69744;SDS011;57015;50.120;-5.168;2022-11-15T10:59:23;17.67;;;2.13;;
69744;SDS011;57015;50.120;-5.168;2022-11-15T11:01:51;20.77;;;2.53;;
69744;SDS011;57015;50.120;-5.168;2022-11-15T11:04:16;12.68;;;1.90;;
69744;SDS011;57015;50.120;-5.168;2022-11-15T11:06:47;20.40;;;1.77;;
69744;SDS011;57015;50.120;-5.168;2022-11-15T11:11:59;14.38;;;1.83;;
69744;SDS011;57015;50.120;-5.168;2022-11-15T11:14:26;15.02;;;2.05;;
69744;SDS011;57015;50.120;-5.168;2022-11-15T11:30:23;12.30;;;1.40;;
69744;SDS011;57015;50.120;-5.168;2022-11-15T11:41:24;11.82;;;1.48;;
69744;SDS011;57015;50.120;-5.168;2022-11-15T11:46:29;11.90;;;1.70;;
69744;SDS011;57015;50.120;-5.168;2022-11-15T11:57:06;12.70;;;1.42;;
69744;SDS011;57015;50.120;-5.168;2022-11-15T11:59:51;14.20;;;2.15;;
69744;SDS011;57015;50.120;-5.168;2022-11-15T12:04:58;13.90;;;1.83;;
69744;SDS011;57015;50.120;-5.168;2022-11-15T12:07:31;15.60;;;2.70;;
69744;SDS011;57015;50.120;-5.168;2022-11-15T12:15:31;17.23;;;2.60;;
69744;SDS011;57015;50.120;-5.168;2022-11-15T12:18:00;19.07;;;2.30;;
69744;SDS011;57015;50.120;-5.168;2022-11-15T12:20:27;12.65;;;3.10;;
69744;SDS011;57015;50.120;-5.168;2022-11-15T12:23:05;12.10;;;2.47;;
69744;SDS011;57015;50.120;-5.168;2022-11-15T12:25:34;14.65;;;1.90;;
69744;SDS011;57015;50.120;-5.168;2022-11-15T12:30:54;10.13;;;1.70;;
69744;SDS011;57015;50.120;-5.168;2022-11-15T12:36:01;11.60;;;1.27;;
69744;SDS011;57015;50.120;-5.168;2022-11-15T12:41:21;13.80;;;2.73;;
69744;SDS011;57015;50.120;-5.168;2022-11-15T12:43:48;12.13;;;3.28;;
69744;SDS011;57015;50.120;-5.168;2022-11-15T12:54:59;12.00;;;2.87;;
69744;SDS011;57015;50.120;-5.168;2022-11-15T13:22:48;8.75;;;1.33;;
69744;SDS011;57015;50.120;-5.168;2022-11-15T13:30:39;8.10;;;1.63;;
69744;SDS011;57015;50.120;-5.168;2022-11-15T13:35:58;5.47;;;1.02;;
69744;SDS011;57015;50.120;-5.168;2022-11-15T13:38:31;4.33;;;0.70;;
69744;SDS011;57015;50.120;-5.168;2022-11-15T13:41:23;8.45;;;0.73;;
69744;SDS011;57015;50.120;-5.168;2022-11-15T13:43:51;10.10;;;1.15;;
69744;SDS011;57015;50.120;-5.168;2022-11-15T13:46:19;6.50;;;0.77;;
69744;SDS011;57015;50.120;-5.168;2022-11-15T13:48:46;8.63;;;0.93;;
69744;SDS011;57015;50.120;-5.168;2022-11-15T13:53:51;6.13;;;0.90;;
69744;SDS011;57015;50.120;-5.168;2022-11-15T13:56:20;5.43;;;0.93;;
69744;SDS011;57015;50.120;-5.168;2022-11-15T13:58:46;12.00;;;1.10;;
69744;SDS011;57015;50.120;-5.168;2022-11-15T14:01:16;6.35;;;0.55;;
69744;SDS011;57015;50.120;-5.168;2022-11-15T14:03:49;5.47;;;0.50;;
69744;SDS011;57015;50.120;-5.168;2022-11-15T14:06:16;4.78;;;0.88;;
69744;SDS011;57015;50.120;-5.168;2022-11-15T14:11:49;3.78;;;0.50;;
69744;SDS011;57015;50.120;-5.168;2022-11-15T14:14:16;3.90;;;0.40;;
69744;SDS011;57015;50.120;-5.168;2022-11-15T14:16:46;4.80;;;0.60;;
69744;SDS011;57015;50.120;-5.168;2022-11-15T14:19:33;5.65;;;0.85;;
69744;SDS011;57015;50.120;-5.168;2022-11-15T14:24:39;1.67;;;0.28;;
69744;SDS011;57015;50.120;-5.168;2022-11-15T14:27:25;3.67;;;0.30;;
69744;SDS011;57015;50.120;-5.168;2022-11-15T14:29:52;8.77;;;0.50;;
69744;SDS011;57015;50.120;-5.168;2022-11-15T14:32:22;4.15;;;0.30;;
69744;SDS011;57015;50.120;-5.168;2022-11-15T14:34:48;8.93;;;0.65;;
69744;SDS011;57015;50.120;-5.168;2022-11-15T14:37:20;12.32;;;1.58;;
69744;SDS011;57015;50.120;-5.168;2022-11-15T14:39:49;5.30;;;0.90;;
69744;SDS011;57015;50.120;-5.168;2022-11-15T14:42:15;4.90;;;0.70;;
69744;SDS011;57015;50.120;-5.168;2022-11-15T14:44:41;6.05;;;0.85;;
69744;SDS011;57015;50.120;-5.168;2022-11-15T14:47:06;9.55;;;1.20;;
69744;SDS011;57015;50.120;-5.168;2022-11-15T14:49:31;7.93;;;0.60;;
69744;SDS011;57015;50.120;-5.168;2022-11-15T14:51:57;5.33;;;0.60;;
69744;SDS011;57015;50.120;-5.168;2022-11-15T14:54:22;7.63;;;0.80;;
69744;SDS011;57015;50.120;-5.168;2022-11-15T14:56:48;10.90;;;0.83;;
69744;SDS011;57015;50.120;-5.168;2022-11-15T14:59:13;5.35;;;0.50;;
69744;SDS011;57015;50.120;-5.168;2022-11-15T15:01:39;6.68;;;0.73;;
69744;SDS011;57015;50.120;-5.168;2022-11-15T15:04:04;1.57;;;0.30;;
69744;SDS011;57015;50.120;-5.168;2022-11-15T15:06:30;5.27;;;0.53;;
69744;SDS011;57015;50.120;-5.168;2022-11-15T15:08:55;5.32;;;0.60;;
69744;SDS011;57015;50.120;-5.168;2022-11-15T15:11:28;3.77;;;0.67;;
69744;SDS011;57015;50.120;-5.168;2022-11-15T15:13:56;5.93;;;0.70;;
69744;SDS011;57015;50.120;-5.168;2022-11-15T15:16:25;3.58;;;0.38;;
69744;SDS011;57015;50.120;-5.168;2022-11-15T15:18:50;10.83;;;1.37;;
69744;SDS011;57015;50.120;-5.168;2022-11-15T15:21:26;4.18;;;0.50;;
69744;SDS011;57015;50.120;-5.168;2022-11-15T15:23:53;3.75;;;0.57;;
69744;SDS011;57015;50.120;-5.168;2022-11-15T15:26:21;4.80;;;0.50;;
69744;SDS011;57015;50.120;-5.168;2022-11-15T15:28:47;3.30;;;0.40;;
69744;SDS011;57015;50.120;-5.168;2022-11-15T15:31:16;3.78;;;0.60;;
69744;SDS011;57015;50.120;-5.168;2022-11-15T15:33:42;6.03;;;0.75;;
69744;SDS011;57015;50.120;-5.168;2022-11-15T15:36:10;6.07;;;0.50;;
69744;SDS011;57015;50.120;-5.168;2022-11-15T15:38:37;4.90;;;0.88;;
69744;SDS011;57015;50.120;-5.168;2022-11-15T15:41:02;2.40;;;0.57;;
69744;SDS011;57015;50.120;-5.168;2022-11-15T15:43:28;3.13;;;0.38;;
69744;SDS011;57015;50.120;-5.168;2022-11-15T15:45:54;4.17;;;0.60;;
69744;SDS011;57015;50.120;-5.168;2022-11-15T15:48:19;4.33;;;0.60;;
69744;SDS011;57015;50.120;-5.168;2022-11-15T15:50:44;4.33;;;0.67;;
69744;SDS011;57015;50.120;-5.168;2022-11-15T15:53:10;5.90;;;0.50;;
69744;SDS011;57015;50.120;-5.168;2022-11-15T15:55:37;4.63;;;1.00;;
69744;SDS011;57015;50.120;-5.168;2022-11-15T15:58:03;2.95;;;0.50;;
69744;SDS011;57015;50.120;-5.168;2022-11-15T16:00:29;6.20;;;1.08;;
69744;SDS011;57015;50.120;-5.168;2022-11-15T16:02:57;6.40;;;1.25;;
69744;SDS011;57015;50.120;-5.168;2022-11-15T16:05:23;8.20;;;1.20;;
69744;SDS011;57015;50.120;-5.168;2022-11-15T16:07:48;6.73;;;1.23;;
69744;SDS011;57015;50.120;-5.168;2022-11-15T16:10:19;5.13;;;1.00;;
69744;SDS011;57015;50.120;-5.168;2022-11-15T16:12:49;7.57;;;1.00;;
69744;SDS011;57015;50.120;-5.168;2022-11-15T16:15:16;3.75;;;0.50;;
69744;SDS011;57015;50.120;-5.168;2022-11-15T16:17:44;3.33;;;0.40;;
69744;SDS011;57015;50.120;-5.168;2022-11-15T16:20:19;3.88;;;0.40;;
69744;SDS011;57015;50.120;-5.168;2022-11-15T16:22:49;5.32;;;0.70;;
69744;SDS011;57015;50.120;-5.168;2022-11-15T16:25:14;5.53;;;0.43;;
69744;SDS011;57015;50.120;-5.168;2022-11-15T16:27:40;3.43;;;0.30;;
69744;SDS011;57015;50.120;-5.168;2022-11-15T16:30:16;3.47;;;0.50;;
69744;SDS011;57015;50.120;-5.168;2022-11-15T16:32:43;6.70;;;0.50;;
69744;SDS011;57015;50.120;-5.168;2022-11-15T16:35:12;4.70;;;1.02;;
69744;SDS011;57015;50.120;-5.168;2022-11-15T16:37:38;3.77;;;0.63;;
69744;SDS011;57015;50.120;-5.168;2022-11-15T16:40:31;4.97;;;0.70;;
69744;SDS011;57015;50.120;-5.168;2022-11-15T16:42:58;3.00;;;0.90;;
69744;SDS011;57015;50.120;-5.168;2022-11-15T16:45:28;6.72;;;1.02;;
69744;SDS011;57015;50.120;-5.168;2022-11-15T16:47:55;4.65;;;1.20;;
69744;SDS011;57015;50.120;-5.168;2022-11-15T16:50:25;6.27;;;0.80;;
69744;SDS011;57015;50.120;-5.168;2022-11-15T16:52:53;5.43;;;1.33;;
69744;SDS011;57015;50.120;-5.168;2022-11-15T16:55:20;8.57;;;0.80;;
69744;SDS011;57015;50.120;-5.168;2022-11-15T16:57:46;4.50;;;0.70;;
69744;SDS011;57015;50.120;-5.168;2022-11-15T17:00:11;5.80;;;0.28;;
69744;SDS011;57015;50.120;-5.168;2022-11-15T17:02:40;3.90;;;0.80;;
69744;SDS011;57015;50.120;-5.168;2022-11-15T17:05:10;3.90;;;0.30;;
69744;SDS011;57015;50.120;-5.168;2022-11-15T17:07:36;5.30;;;0.50;;
69744;SDS011;57015;50.120;-5.168;2022-11-15T17:10:02;5.45;;;0.60;;
69744;SDS011;57015;50.120;-5.168;2022-11-15T17:12:28;4.72;;;0.50;;
69744;SDS011;57015;50.120;-5.168;2022-11-15T17:14:55;4.18;;;0.60;;
69744;SDS011;57015;50.120;-5.168;2022-11-15T17:17:20;5.90;;;0.85;;
69744;SDS011;57015;50.120;-5.168;2022-11-15T17:19:46;6.20;;;0.77;;
69744;SDS011;57015;50.120;-5.168;2022-11-15T17:22:11;5.30;;;0.70;;
69744;SDS011;57015;50.120;-5.168;2022-11-15T17:24:36;5.87;;;0.83;;
69744;SDS011;57015;50.120;-5.168;2022-11-15T17:27:02;5.30;;;1.20;;
69744;SDS011;57015;50.120;-5.168;2022-11-15T17:29:27;5.47;;;1.05;;